Time;durP1;ratioP1;P1;durP2;ratioP2;P2;SDS_P1;SDS_P2;PMS_P1;PMS_P2;Temp;Humidity;BMP_temperature;BMP_pressure;BME280_temperature;BME280_humidity;BME280_pressure;Samples;Min_cycle;Max_cycle;Signal;HPM_P1;HPM_P2
2022/02/08 00:00:00;;;;;;;35.40;26.17;;;;;;;2.44;100.00;99817.70;1741840;82;20170;-79
2022/02/08 00:02:18;;;;;;;42.67;26.17;;;;;;;2.48;100.00;99825.61;1739829;82;21559;-77
2022/02/08 00:04:47;;;;;;;39.25;26.50;;;;;;;2.51;100.00;99826.73;1743727;82;21535;-77
2022/02/08 00:07:14;;;;;;;42.38;27.52;;;;;;;2.50;100.00;99824.23;1743824;81;21002;-77
2022/02/08 00:09:42;;;;;;;42.50;29.40;;;;;;;2.50;100.00;99824.23;1744175;82;21006;-82
2022/02/08 00:12:09;;;;;;;44.75;26.85;;;;;;;2.50;100.00;99826.80;1775035;80;21041;-78
2022/02/08 00:14:38;;;;;;;44.00;28.27;;;;;;;2.50;100.00;99826.80;1785922;80;21049;-79
2022/02/08 00:17:05;;;;;;;45.88;29.37;;;;;;;2.52;100.00;99824.52;1785602;80;21150;-80
2022/02/08 00:19:35;;;;;;;38.25;27.42;;;;;;;2.52;100.00;99827.09;1785923;80;21022;-78
2022/02/08 00:22:04;;;;;;;46.00;28.47;;;;;;;2.53;100.00;99831.32;1784575;80;21044;-78
2022/02/08 00:24:32;;;;;;;44.08;27.95;;;;;;;2.52;100.00;99829.66;1786071;80;21065;-78
2022/02/08 00:27:01;;;;;;;38.60;28.20;;;;;;;2.52;100.00;99829.66;1754813;80;21530;-79
2022/02/08 00:29:28;;;;;;;39.13;28.65;;;;;;;2.51;100.00;99833.16;1785464;80;21652;-78
2022/02/08 00:31:55;;;;;;;41.20;28.40;;;;;;;2.48;100.00;99826.89;1785791;80;21068;-77
2022/02/08 00:34:22;;;;;;;35.15;26.40;;;;;;;2.45;100.00;99826.23;1785790;80;21030;-79
2022/02/08 00:36:49;;;;;;;39.70;26.70;;;;;;;2.43;100.00;99822.91;1785980;80;21073;-79
2022/02/08 00:39:16;;;;;;;40.17;27.75;;;;;;;2.42;100.00;99825.95;1785801;80;21561;-78
2022/02/08 00:41:43;;;;;;;43.13;28.87;;;;;;;2.40;100.00;99826.48;1755553;80;21747;-77
2022/02/08 00:44:19;;;;;;;38.58;27.77;;;;;;;2.40;100.00;99826.48;1785822;80;21029;-79
2022/02/08 00:46:49;;;;;;;43.78;28.42;;;;;;;2.41;100.00;99823.00;1773744;80;21070;-79
2022/02/08 00:49:12;;;;;;;39.83;27.17;;;;;;;2.39;100.00;99822.72;1750296;81;20996;-79
2022/02/08 00:51:50;;;;;;;38.30;28.02;;;;;;;2.39;100.00;99814.53;1724664;81;21007;-78
2022/02/08 00:54:18;;;;;;;47.67;29.90;;;;;;;2.39;100.00;99814.53;1724407;81;21050;-79
2022/02/08 00:56:43;;;;;;;43.08;28.38;;;;;;;2.37;100.00;99809.92;1723419;81;21556;-79
2022/02/08 00:59:12;;;;;;;43.48;27.58;;;;;;;2.35;100.00;99812.59;1754372;81;21464;-80
2022/02/08 01:01:40;;;;;;;45.43;29.67;;;;;;;2.35;100.00;99812.59;1754598;81;21540;-78
2022/02/08 01:04:12;;;;;;;43.68;28.98;;;;;;;2.35;100.00;99819.48;1754283;81;21024;-78
2022/02/08 01:06:42;;;;;;;40.55;27.67;;;;;;;2.35;100.00;99820.77;1754744;81;21147;-78
2022/02/08 01:09:17;;;;;;;44.45;27.73;;;;;;;2.34;100.00;99818.64;1754831;81;21864;-77
2022/02/08 01:11:44;;;;;;;44.77;28.50;;;;;;;2.34;100.00;99822.95;1749931;81;21115;-80
2022/02/08 01:14:13;;;;;;;42.55;28.35;;;;;;;2.32;100.00;99835.87;1754551;81;21329;-79
2022/02/08 01:16:40;;;;;;;43.85;28.90;;;;;;;2.31;100.00;99833.39;1754063;81;21011;-79
2022/02/08 01:19:08;;;;;;;44.65;29.72;;;;;;;2.27;100.00;99835.77;1754787;81;21114;-77
2022/02/08 01:21:35;;;;;;;44.60;29.30;;;;;;;2.21;100.00;99834.34;1754716;81;21061;-79
2022/02/08 01:24:03;;;;;;;44.27;29.52;;;;;;;2.21;100.00;99834.34;1754506;80;21044;-78
2022/02/08 01:26:32;;;;;;;47.90;31.42;;;;;;;2.24;100.00;99837.19;1754781;81;21596;-78
2022/02/08 01:29:16;;;;;;;47.05;30.57;;;;;;;2.26;100.00;99841.34;1754061;81;21062;-78
2022/02/08 01:31:36;;;;;;;42.80;29.50;;;;;;;2.31;100.00;99841.94;1721232;81;21089;-78
2022/02/08 01:39:17;;;;;;;47.43;31.60;;;;;;;2.32;100.00;99829.44;1752727;81;21033;-78
2022/02/08 01:43:14;;;;;;;47.83;30.43;;;;;;;2.30;100.00;99831.28;1750620;81;21137;-78
2022/02/08 01:44:41;;;;;;;56.60;30.72;;;;;;;2.20;100.00;99821.93;1698246;82;21169;-80
2022/02/08 01:47:11;;;;;;;49.95;30.32;;;;;;;2.21;100.00;99821.49;1695115;82;21150;-81
2022/02/08 01:49:36;;;;;;;55.52;30.55;;;;;;;2.21;100.00;99821.49;1694648;82;21081;-76
2022/02/08 01:52:05;;;;;;;;;;;;;;;2.21;100.00;99818.45;1754429;81;21511;-78
2022/02/08 01:54:33;;;;;;;48.50;29.42;;;;;;;2.23;100.00;99827.83;1755564;81;20194;-79
2022/02/08 01:57:00;;;;;;;51.28;30.15;;;;;;;2.28;100.00;99823.30;1756133;81;21833;-79
2022/02/08 01:59:28;;;;;;;52.75;31.27;;;;;;;2.32;100.00;99829.91;1726296;81;21520;-79
2022/02/08 02:01:55;;;;;;;46.37;29.30;;;;;;;2.32;100.00;99829.91;1756384;81;21298;-79
2022/02/08 02:04:23;;;;;;;49.40;29.45;;;;;;;2.34;100.00;99829.38;1755334;81;21069;-79
2022/02/08 02:06:51;;;;;;;65.05;31.12;;;;;;;2.32;100.00;99824.77;1726077;81;21077;-78
2022/02/08 02:09:21;;;;;;;46.88;29.05;;;;;;;2.32;100.00;99826.06;1751269;81;21158;-78
2022/02/08 02:11:54;;;;;;;56.53;29.50;;;;;;;2.31;100.00;99825.68;1755663;81;21026;-78
2022/02/08 02:14:22;;;;;;;50.25;29.45;;;;;;;2.29;100.00;99821.92;1755668;81;21017;-79
2022/02/08 02:16:59;;;;;;;50.88;29.80;;;;;;;2.27;100.00;99825.48;1756057;81;21527;-78
2022/02/08 02:19:29;;;;;;;52.88;29.25;;;;;;;2.29;100.00;99828.78;1755636;81;21554;-78
2022/02/08 02:21:59;;;;;;;52.50;29.20;;;;;;;2.30;100.00;99830.44;1730568;81;21467;-77
2022/02/08 02:24:26;;;;;;;49.85;28.30;;;;;;;2.33;100.00;99830.28;1755919;81;21593;-78
2022/02/08 02:26:58;;;;;;;47.03;28.17;;;;;;;2.32;100.00;99828.16;1743179;81;21116;-78
2022/02/08 02:29:29;;;;;;;54.08;30.37;;;;;;;2.35;100.00;99833.61;1742766;81;21787;-78
2022/02/08 02:31:58;;;;;;;55.30;29.63;;;;;;;2.36;100.00;99836.56;1760669;80;21598;-78
2022/02/08 02:34:27;;;;;;;56.92;30.90;;;;;;;2.36;100.00;99835.27;1759620;81;21140;-79
2022/02/08 02:36:55;;;;;;;52.27;28.95;;;;;;;2.37;100.00;99838.19;1742674;81;21101;-78
2022/02/08 02:39:26;;;;;;;45.75;28.92;;;;;;;2.34;100.00;99840.94;1730856;82;21044;-78
2022/02/08 02:41:54;;;;;;;49.38;29.63;;;;;;;2.32;100.00;99838.91;1701388;81;21018;-79
2022/02/08 02:44:24;;;;;;;49.80;28.62;;;;;;;2.31;100.00;99839.38;1753790;81;21558;-77
2022/02/08 02:46:52;;;;;;;48.80;29.05;;;;;;;2.29;100.00;99839.05;1760614;81;21856;-78
2022/02/08 02:49:27;;;;;;;45.08;27.67;;;;;;;2.29;100.00;99836.48;1785645;80;21822;-80
2022/02/08 02:51:56;;;;;;;48.73;27.07;;;;;;;2.29;100.00;99837.77;1741264;81;21086;-78
2022/02/08 02:54:24;;;;;;;40.30;27.05;;;;;;;2.29;100.00;99845.48;1754956;81;21825;-79
2022/02/08 02:56:58;;;;;;;45.63;26.70;;;;;;;2.30;100.00;99843.28;1746777;81;21046;-80
2022/02/08 02:59:24;;;;;;;49.18;28.32;;;;;;;2.30;100.00;99843.28;1750684;81;21588;-78
2022/02/08 03:02:23;;;;;;;43.98;26.00;;;;;;;2.30;100.00;99849.71;1754531;81;21074;-79
2022/02/08 03:20:44;;;;;;;39.80;24.35;;;;;;;2.16;100.00;99860.27;1754774;81;21880;-78
2022/02/08 03:23:14;;;;;;;42.17;23.92;;;;;;;2.16;100.00;99860.27;1750379;81;21116;-78
2022/02/08 03:25:42;;;;;;;41.42;24.77;;;;;;;2.15;100.00;99865.02;1754277;81;21167;-78
2022/02/08 03:28:10;;;;;;;41.65;23.77;;;;;;;2.17;100.00;99867.50;1721211;81;21448;-78
2022/02/08 03:30:38;;;;;;;38.42;23.55;;;;;;;2.18;100.00;99855.88;1725104;81;21575;-80
2022/02/08 03:33:08;;;;;;;42.58;22.87;;;;;;;2.18;100.00;99855.88;1724324;81;21061;-80
2022/02/08 03:35:36;;;;;;;38.35;23.67;;;;;;;2.20;100.00;99855.80;1721201;81;21262;-80
2022/02/08 03:38:05;;;;;;;39.27;23.02;;;;;;;2.22;100.00;99859.13;1755268;81;21130;-80
2022/02/08 03:43:27;;;;;;;41.63;23.85;;;;;;;2.22;100.00;99856.55;1755205;81;21586;-80
2022/02/08 03:45:46;;;;;;;34.53;21.77;;;;;;;2.23;100.00;99861.22;1720681;81;21062;-80
2022/02/08 03:48:16;;;;;;;;;;;;;;;2.23;100.00;99859.94;1757284;81;21188;-80
2022/02/08 03:50:45;;;;;;;39.45;22.90;;;;;;;2.23;100.00;99860.78;1750167;81;21714;-79
2022/02/08 03:53:12;;;;;;;34.20;21.17;;;;;;;2.25;100.00;99856.84;1754787;81;21089;-80
2022/02/08 03:55:39;;;;;;;37.05;22.73;;;;;;;2.24;100.00;99857.31;1754524;81;21092;-79
2022/02/08 03:58:08;;;;;;;35.63;21.70;;;;;;;2.26;100.00;99863.64;1754329;81;21140;-80
2022/02/08 04:00:48;;;;;;;38.10;22.45;;;;;;;2.24;100.00;99859.03;1752959;81;21026;-79
2022/02/08 04:03:05;;;;;;;36.60;21.95;;;;;;;2.23;100.00;99857.37;1757526;79;21107;-79
2022/02/08 04:05:38;;;;;;;35.58;21.60;;;;;;;2.25;100.00;99861.98;1750358;80;21041;-78
2022/02/08 04:08:05;;;;;;;36.25;21.73;;;;;;;2.27;100.00;99865.30;1746050;80;21085;-79
2022/02/08 04:10:31;;;;;;;35.75;22.10;;;;;;;2.28;100.00;99872.11;1781277;80;20994;-79
2022/02/08 04:34:50;;;;;;;32.10;21.48;;;;;;;2.25;100.00;99886.39;1741147;80;21843;-80
2022/02/08 04:42:38;;;;;;;42.53;22.42;;;;;;;2.32;100.00;99878.73;1783581;79;21153;-79
2022/02/08 04:47:33;;;;;;;48.02;24.72;;;;;;;2.43;100.00;99884.58;1771409;79;21044;-83
2022/02/08 04:49:55;;;;;;;48.30;25.92;;;;;;;3.16;100.00;99886.17;1725034;81;21049;-80
2022/02/08 04:52:24;;;;;;;53.68;25.72;;;;;;;3.90;100.00;99888.02;1762528;80;21912;-82
2022/02/08 04:55:02;;;;;;;89.03;27.27;;;;;;;4.56;100.00;99895.67;1752987;81;21898;-80
2022/02/08 05:26:35;;;;;;;48.45;27.35;;;;;;;6.02;100.00;99894.13;1758540;81;21012;-81
2022/02/08 05:35:36;;;;;;;25.50;18.70;;;;;;;3.45;100.00;99916.33;1703156;80;21058;-79
2022/02/08 05:43:22;;;;;;;28.05;21.25;;;;;;;3.20;100.00;99927.18;1756477;81;42652;-78
2022/02/08 05:48:29;;;;;;;30.75;20.95;;;;;;;3.04;100.00;99929.31;1730926;82;21891;-79
2022/02/08 05:50:59;;;;;;;27.15;20.62;;;;;;;2.98;100.00;99934.33;1726661;82;21056;-77
2022/02/08 05:53:42;;;;;;;;;;;;;;;2.95;100.00;99937.53;1756500;81;21642;-77
2022/02/08 05:56:01;;;;;;;28.23;18.90;;;;;;;2.90;100.00;99948.06;1728331;81;20155;-78
2022/02/08 05:58:29;;;;;;;27.25;19.10;;;;;;;2.86;100.00;99947.86;1757908;80;21052;-78
2022/02/08 06:00:56;;;;;;;27.90;19.50;;;;;;;2.81;100.00;99945.53;1753409;81;21687;-78
2022/02/08 06:03:25;;;;;;;26.68;19.50;;;;;;;2.78;100.00;99950.83;1726669;81;21079;-78
2022/02/08 06:05:57;;;;;;;30.00;20.52;;;;;;;2.77;100.00;99949.64;1754366;81;21596;-77
2022/02/08 06:08:26;;;;;;;25.68;19.70;;;;;;;2.75;100.00;99955.31;1757498;81;20992;-77
2022/02/08 06:11:01;;;;;;;60.67;31.82;;;;;;;2.73;100.00;99947.69;1757536;81;21011;-79
2022/02/08 06:13:27;;;;;;;70.62;36.13;;;;;;;2.72;100.00;99955.02;1718562;83;21050;-78
2022/02/08 06:16:03;;;;;;;59.45;32.08;;;;;;;2.69;100.00;99955.17;1715343;82;20998;-78
2022/02/08 06:18:31;;;;;;;54.53;29.40;;;;;;;2.65;100.00;99957.55;1747092;80;21505;-79
2022/02/08 06:20:59;;;;;;;55.15;30.68;;;;;;;2.64;100.00;99963.59;1728138;81;21077;-77
2022/02/08 06:23:28;;;;;;;62.65;26.42;;;;;;;2.66;100.00;99964.34;1752286;81;21598;-78
2022/02/08 06:25:56;;;;;;;69.20;32.90;;;;;;;2.73;100.00;99972.11;1740639;81;21595;-80
2022/02/08 06:28:23;;;;;;;65.50;29.00;;;;;;;3.21;100.00;99975.16;1721092;81;21533;-79
2022/02/08 06:30:52;;;;;;;46.20;26.35;;;;;;;3.45;100.00;99977.67;1757594;80;21441;-79
2022/02/08 06:33:22;;;;;;;56.60;26.93;;;;;;;3.58;100.00;99976.53;1748990;80;21542;-79
2022/02/08 06:35:50;;;;;;;55.12;27.80;;;;;;;3.64;100.00;99983.09;1714428;82;21050;-79
2022/02/08 06:38:19;;;;;;;55.43;27.27;;;;;;;3.67;100.00;99987.23;1743173;82;21778;-79
2022/02/08 06:40:50;;;;;;;41.85;29.02;;;;;;;3.71;100.00;99985.69;1744816;82;21038;-79
2022/02/08 06:43:16;;;;;;;55.52;30.52;;;;;;;3.80;100.00;99989.47;1719329;82;21018;-79
2022/02/08 06:45:44;;;;;;;48.52;30.25;;;;;;;3.83;100.00;99991.89;1745093;81;21092;-79
2022/02/08 06:48:11;;;;;;;54.10;30.62;;;;;;;3.89;100.00;99992.82;1716303;82;21491;-79
2022/02/08 06:50:39;;;;;;;50.00;29.82;;;;;;;3.93;100.00;99994.76;1709828;82;21614;-80
2022/02/08 06:53:06;;;;;;;51.10;31.40;;;;;;;3.97;100.00;99997.98;1737412;82;21375;-80
2022/02/08 06:55:34;;;;;;;48.70;30.05;;;;;;;4.03;100.00;100001.05;1733746;82;21679;-83
2022/02/08 07:00:32;;;;;;;51.42;31.45;;;;;;;4.18;100.00;100003.66;1786197;80;21014;-80
2022/02/08 07:02:57;;;;;;;49.38;32.03;;;;;;;4.28;100.00;100000.91;1785364;80;21228;-79
2022/02/08 07:05:25;;;;;;;51.70;32.20;;;;;;;4.32;100.00;100006.24;1786228;80;21048;-80
2022/02/08 07:07:53;;;;;;;75.10;41.58;;;;;;;4.34;100.00;100010.86;1786172;80;21060;-80
2022/02/08 07:10:20;;;;;;;76.53;43.05;;;;;;;4.32;100.00;100012.69;1785919;80;20990;-80
2022/02/08 07:12:50;;;;;;;75.32;43.58;;;;;;;4.31;100.00;100012.79;1786292;80;21535;-80
2022/02/08 07:15:19;;;;;;;70.65;43.45;;;;;;;4.32;100.00;100012.69;1786203;80;21144;-80
2022/02/08 07:17:47;;;;;;;74.17;42.03;;;;;;;4.32;100.00;100012.69;1755478;80;21104;-80
2022/02/08 07:20:14;;;;;;;60.33;39.83;;;;;;;4.42;100.00;100014.26;1785997;80;21638;-79
2022/02/08 07:22:42;;;;;;;63.70;40.05;;;;;;;4.55;100.00;100019.08;1785838;80;21010;-81
2022/02/08 07:25:10;;;;;;;89.85;38.10;;;;;;;4.61;100.00;100017.05;1786259;80;21077;-81
2022/02/08 07:27:37;;;;;;;71.35;38.58;;;;;;;4.60;100.00;100017.52;1786446;80;21129;-80
2022/02/08 07:33:57;;;;;;;44.25;33.18;;;;;;;4.70;100.00;100016.50;1786212;80;21006;-77
2022/02/08 07:47:16;;;;;;;57.23;30.57;;;;;;;5.07;100.00;100030.20;1745866;80;21057;-80
2022/02/08 07:49:46;;;;;;;53.67;31.93;;;;;;;4.70;100.00;100030.20;1782313;80;21041;-79
2022/02/08 07:52:14;;;;;;;49.25;30.40;;;;;;;4.52;100.00;100033.91;1784384;79;21003;-79
2022/02/08 07:54:42;;;;;;;69.03;38.95;;;;;;;4.36;100.00;100031.38;1774008;80;21963;-80
2022/02/08 07:57:09;;;;;;;64.53;38.95;;;;;;;4.23;100.00;100033.84;1745587;80;20983;-80
2022/02/08 07:59:36;;;;;;;63.28;38.25;;;;;;;4.09;100.00;100036.77;1733937;81;21410;-81
2022/02/08 08:02:04;;;;;;;66.37;38.30;;;;;;;4.01;100.00;100040.23;1734662;81;21077;-81
2022/02/08 08:05:23;;;;;;;70.05;38.23;;;;;;;3.94;100.00;100037.17;1759931;81;21033;-80
2022/02/08 08:07:52;;;;;;;60.40;37.58;;;;;;;3.92;100.00;100040.75;1772707;80;21109;-80
2022/02/08 08:10:21;;;;;;;64.15;36.73;;;;;;;3.89;100.00;100045.62;1772629;80;21109;-80
2022/02/08 08:12:52;;;;;;;61.10;36.70;;;;;;;3.86;100.00;100046.26;1771985;80;21005;-80
2022/02/08 08:15:40;;;;;;;48.95;32.48;;;;;;;3.84;100.00;100041.64;1772319;80;21654;-79
2022/02/08 08:18:25;;;;;;;47.33;30.60;;;;;;;3.83;100.00;100049.84;1772951;80;21496;-80
2022/02/08 08:20:43;;;;;;;47.62;28.90;;;;;;;3.82;100.00;100052.48;1769707;80;20971;-79
2022/02/08 08:23:11;;;;;;;46.98;28.77;;;;;;;3.79;100.00;100051.76;1773164;80;21979;-79
2022/02/08 08:25:39;;;;;;;49.08;26.42;;;;;;;3.79;100.00;100053.48;1773017;80;21766;-80
2022/02/08 08:28:07;;;;;;;40.98;25.92;;;;;;;3.81;100.00;100058.55;1772982;80;21507;-80
2022/02/08 08:30:34;;;;;;;42.23;26.90;;;;;;;3.79;100.00;100060.77;1773797;80;21037;-79
2022/02/08 08:33:02;;;;;;;41.68;27.55;;;;;;;3.74;100.00;100064.52;1747382;80;21484;-79
2022/02/08 08:35:29;;;;;;;38.08;25.37;;;;;;;3.69;100.00;100058.33;1773357;80;21878;-80
2022/02/08 08:38:03;;;;;;;42.83;25.30;;;;;;;3.66;100.00;100058.48;1773669;80;21023;-80
2022/02/08 08:40:44;;;;;;;41.08;24.55;;;;;;;3.65;100.00;100063.25;1743834;80;21046;-80
2022/02/08 08:43:38;;;;;;;40.70;24.98;;;;;;;3.66;100.00;100060.24;1769654;80;21030;-80
2022/02/08 08:48:41;;;;;;;42.98;24.20;;;;;;;3.64;100.00;100066.77;1773551;80;21151;-80
2022/02/08 08:50:59;;;;;;;35.23;23.60;;;;;;;3.64;100.00;100069.34;1769610;80;21120;-79
2022/02/08 08:53:21;;;;;;;41.42;24.45;;;;;;;3.61;100.00;100072.89;1769780;80;21050;-79
2022/02/08 08:55:48;;;;;;;42.03;24.27;;;;;;;3.59;100.00;100069.59;1772248;80;21101;-80
2022/02/08 08:58:15;;;;;;;43.87;24.65;;;;;;;3.58;100.00;100078.23;1706016;82;21085;-81
2022/02/08 09:00:42;;;;;;;43.23;24.45;;;;;;;3.59;100.00;100080.34;1736396;82;21850;-81
2022/02/08 09:03:09;;;;;;;43.08;25.35;;;;;;;3.61;100.00;100083.66;1736777;82;22260;-80
2022/02/08 09:05:36;;;;;;;43.70;25.72;;;;;;;3.60;100.00;100075.56;1707190;82;21480;-80
2022/02/08 09:08:04;;;;;;;39.90;24.20;;;;;;;3.59;100.00;100078.61;1736832;82;21650;-81
2022/02/08 09:10:42;;;;;;;39.38;24.57;;;;;;;3.58;100.00;100076.09;1736790;82;21366;-80
2022/02/08 09:13:18;;;;;;;45.35;24.87;;;;;;;3.57;100.00;100077.00;1731810;82;22004;-79
2022/02/08 09:15:55;;;;;;;43.65;25.15;;;;;;;3.59;100.00;100074.75;1703447;82;21045;-79
2022/02/08 09:31:03;;;;;;;50.85;28.20;;;;;;;3.63;100.00;100065.11;1736186;82;21397;-79
2022/02/08 14:14:50;;;;;;;42.25;25.25;;;;;;;1.25;100.00;100289.34;1773526;79;21037;-81
2022/02/08 14:30:31;;;;;;;47.27;31.05;;;;;;;1.04;100.00;100307.72;1794393;79;21142;-80
2022/02/08 14:33:07;;;;;;;49.75;30.90;;;;;;;1.01;100.00;100312.53;1800436;79;21109;-82
2022/02/08 14:49:49;;;;;;;44.08;29.27;;;;;;;0.89;100.00;100343.77;1729409;79;21108;-81
2022/02/08 15:05:30;;;;;;;43.45;28.00;;;;;;;0.79;100.00;100368.94;1777599;79;21551;-80
2022/02/08 15:08:06;;;;;;;41.42;28.83;;;;;;;0.80;100.00;100371.89;1780439;79;21024;-78
2022/02/08 15:10:44;;;;;;;45.28;28.57;;;;;;;0.76;100.00;100383.17;1734589;80;21053;-80
2022/02/08 15:13:12;;;;;;;47.15;30.05;;;;;;;0.74;100.00;100386.23;1777673;79;21642;-80
2022/02/08 15:18:15;;;;;;;43.60;28.10;;;;;;;0.71;100.00;100391.45;1746068;80;20988;-80
2022/02/08 15:20:42;;;;;;;48.63;30.90;;;;;;;0.69;100.00;100389.39;1768920;80;21000;-79
2022/02/08 15:23:11;;;;;;;46.00;29.98;;;;;;;0.67;100.00;100392.48;1768860;80;21142;-79
2022/02/08 15:25:38;;;;;;;47.23;30.37;;;;;;;0.68;100.00;100394.16;1768201;80;21082;-81
2022/02/08 15:28:05;;;;;;;46.50;30.02;;;;;;;0.67;100.00;100396.33;1783281;79;20984;-78
2022/02/08 15:30:35;;;;;;;46.33;29.10;;;;;;;0.65;100.00;100401.48;1776624;79;21120;-78
2022/02/08 15:33:06;;;;;;;40.65;26.62;;;;;;;0.65;100.00;100410.92;1741926;81;21052;-79
2022/02/08 15:35:32;;;;;;;44.65;28.62;;;;;;;0.62;100.00;100403.72;1737156;80;21169;-80
2022/02/08 15:38:02;;;;;;;40.00;28.77;;;;;;;0.60;100.00;100405.50;1781537;79;21566;-80
2022/02/08 15:40:29;;;;;;;39.95;26.42;;;;;;;0.58;100.00;100409.02;1779087;78;22030;-80
2022/02/08 15:42:56;;;;;;;41.00;28.50;;;;;;;0.59;100.00;100414.53;1786687;79;21646;-80
2022/02/08 15:45:29;;;;;;;40.65;27.20;;;;;;;0.56;100.00;100419.33;1792997;79;21084;-79
2022/02/08 15:47:54;;;;;;;40.20;28.10;;;;;;;0.56;100.00;100419.80;1755763;79;21148;-80
2022/02/08 15:50:44;;;;;;;40.70;25.25;;;;;;;0.54;100.00;100410.86;1788395;79;21086;-82
2022/02/08 15:55:35;;;;;;;44.45;29.37;;;;;;;0.54;100.00;100412.14;1723920;82;21066;-77
2022/02/08 15:58:20;;;;;;;38.60;24.77;;;;;;;0.53;100.00;100413.03;1702536;82;21654;-81
2022/02/08 16:05:58;;;;;;;42.27;29.00;;;;;;;0.59;100.00;100421.80;1745783;80;21651;-79
2022/02/08 16:08:18;;;;;;;36.48;22.48;;;;;;;0.58;100.00;100416.28;1744431;79;21108;-85
2022/02/08 16:10:50;;;;;;;42.75;27.93;;;;;;;0.67;100.00;100425.34;1775158;79;21493;-84
2022/02/08 16:16:09;;;;;;;40.88;27.15;;;;;;;0.67;100.00;100430.92;1800284;79;20988;-81
2022/02/08 16:18:31;;;;;;;37.08;25.08;;;;;;;0.67;100.00;100445.02;1800519;79;21042;-80
2022/02/08 16:23:38;;;;;;;39.75;25.40;;;;;;;0.57;100.00;100445.35;1800197;79;21701;-82
2022/02/08 16:26:18;;;;;;;39.35;26.60;;;;;;;0.51;100.00;100455.83;1795945;79;21546;-81
2022/02/08 16:50:52;;;;;;;38.15;26.45;;;;;;;0.35;100.00;100455.98;1778569;79;21062;-82
2022/02/08 17:00:36;;;;;;;38.70;25.25;;;;;;;0.28;100.00;100459.19;1771620;80;21046;-82
2022/02/08 17:03:07;;;;;;;36.08;22.10;;;;;;;0.26;100.00;100463.09;1726119;80;20990;-84
2022/02/08 17:05:33;;;;;;;34.83;20.80;;;;;;;0.24;100.00;100467.42;1753864;79;21133;-80
2022/02/08 17:08:01;;;;;;;32.20;22.30;;;;;;;0.22;100.00;100465.35;1756713;80;21108;-81
2022/02/08 17:10:36;;;;;;;40.48;26.05;;;;;;;0.22;100.00;100473.03;1731853;80;21026;-81
2022/02/08 17:13:13;;;;;;;37.53;25.77;;;;;;;0.21;100.00;100472.64;1743128;79;21462;-82
2022/02/08 17:47:54;;;;;;;21.93;16.23;;;;;;;0.02;100.00;100473.72;1732021;82;21610;-80
2022/02/08 17:50:21;;;;;;;22.15;15.50;;;;;;;0.01;100.00;100478.89;1746022;80;21057;-81
2022/02/08 17:52:51;;;;;;;20.97;14.03;;;;;;;-0.05;100.00;100474.37;1747698;80;21495;-81
2022/02/08 17:55:20;;;;;;;23.25;16.23;;;;;;;-0.08;100.00;100470.63;1759582;80;21064;-81
2022/02/08 17:57:49;;;;;;;19.32;14.13;;;;;;;-0.12;100.00;100479.28;1773075;79;21979;-80
2022/02/08 18:00:17;;;;;;;21.57;16.00;;;;;;;-0.16;100.00;100484.13;1760220;80;21551;-80
2022/02/08 18:02:46;;;;;;;21.15;15.08;;;;;;;-0.20;100.00;100487.69;1762125;79;21574;-80
2022/02/08 18:05:16;;;;;;;22.85;14.15;;;;;;;-0.24;100.00;100491.21;1743296;79;21611;-80
2022/02/08 18:07:44;;;;;;;21.68;14.10;;;;;;;-0.27;100.00;100486.18;1761469;80;21042;-80
2022/02/08 18:10:13;;;;;;;22.02;15.70;;;;;;;-0.29;100.00;100484.95;1773532;79;21903;-82
2022/02/08 18:12:44;;;;;;;21.73;14.65;;;;;;;-0.31;100.00;100482.88;1769461;80;21014;-80
2022/02/08 18:15:13;;;;;;;20.70;14.13;;;;;;;-0.32;100.00;100477.37;1773862;80;21010;-80
2022/02/08 18:17:49;;;;;;;22.65;15.50;;;;;;;-0.33;100.00;100484.22;1765815;80;21063;-80
2022/02/08 18:28:30;;;;;;;20.88;13.68;;;;;;;-0.29;100.00;100498.21;1743266;82;21518;-81
2022/02/08 19:09:24;;;;;;;18.77;12.60;;;;;;;-0.23;100.00;100536.40;1647365;85;21089;-80
2022/02/08 19:12:23;;;;;;;17.75;11.08;;;;;;;-0.24;100.00;100525.77;1646089;85;21053;-80
2022/02/08 19:19:48;;;;;;;14.10;10.35;;;;;;;-0.21;100.00;100539.75;1647343;85;21037;-80
2022/02/08 19:22:11;;;;;;;13.83;9.13;;;;;;;-0.22;100.00;100549.59;1646795;85;21590;-79
2022/02/08 19:24:39;;;;;;;14.30;10.40;;;;;;;-0.22;100.00;100548.31;1647895;86;21107;-80
2022/02/08 19:27:08;;;;;;;14.05;9.20;;;;;;;-0.21;100.00;100544.88;1647169;85;20993;-79
2022/02/08 19:29:36;;;;;;;16.25;11.12;;;;;;;-0.19;100.00;100548.20;1625195;87;21149;-79
2022/02/08 19:32:07;;;;;;;11.90;9.13;;;;;;;-0.20;100.00;100549.94;1648667;87;21056;-80
2022/02/08 19:34:38;;;;;;;12.75;7.97;;;;;;;-0.21;100.00;100554.66;1648144;85;21091;-80
2022/02/08 19:37:08;;;;;;;14.78;10.05;;;;;;;-0.19;100.00;100564.84;1628166;87;21529;-80
2022/02/08 19:39:39;;;;;;;13.57;9.97;;;;;;;-0.18;100.00;100552.44;1640156;85;21080;-80
2022/02/08 19:42:08;;;;;;;13.28;8.93;;;;;;;-0.17;100.00;100546.44;1637498;86;21201;-80
2022/02/08 19:44:37;;;;;;;14.28;10.30;;;;;;;-0.16;100.00;100557.08;1655268;85;21035;-80
2022/02/08 19:47:07;;;;;;;12.90;8.38;;;;;;;-0.15;100.00;100554.91;1666665;84;21119;-80
2022/02/08 19:49:35;;;;;;;13.05;8.45;;;;;;;-0.15;100.00;100561.31;1667723;84;21134;-79
2022/02/08 19:52:04;;;;;;;17.05;10.75;;;;;;;-0.14;100.00;100566.83;1647615;84;21117;-82
2022/02/08 19:54:40;;;;;;;14.15;9.88;;;;;;;-0.13;100.00;100571.49;1642490;84;21206;-80
2022/02/08 19:57:12;;;;;;;14.25;9.70;;;;;;;-0.14;100.00;100570.67;1643729;86;21688;-80
2022/02/08 19:59:38;;;;;;;14.13;9.65;;;;;;;-0.13;100.00;100568.51;1664260;84;21589;-80
2022/02/08 20:02:04;;;;;;;13.50;9.08;;;;;;;-0.14;100.00;100570.67;1614484;87;21305;-80
2022/02/08 20:04:33;;;;;;;19.20;10.47;;;;;;;-0.13;100.00;100571.49;1616961;87;21641;-80
2022/02/08 20:07:06;;;;;;;15.05;10.40;;;;;;;-0.13;100.00;100569.79;1631916;86;21153;-79
2022/02/08 20:09:33;;;;;;;15.20;10.25;;;;;;;-0.13;100.00;100565.95;1615077;86;21571;-81
2022/02/08 20:12:01;;;;;;;14.83;10.58;;;;;;;-0.13;100.00;100559.97;1637424;85;21061;-81
2022/02/08 20:14:28;;;;;;;14.35;10.28;;;;;;;-0.13;100.00;100568.51;1637627;85;21093;-80
2022/02/08 20:16:56;;;;;;;16.62;10.85;;;;;;;-0.13;100.00;100570.21;1634592;86;21105;-79
2022/02/08 20:19:25;;;;;;;16.93;10.28;;;;;;;-0.13;100.00;100572.77;1634460;86;21140;-81
2022/02/08 20:22:01;;;;;;;15.75;8.88;;;;;;;-0.15;100.00;100568.99;1611377;87;21030;-80
2022/02/08 20:24:23;;;;;;;17.00;11.20;;;;;;;-0.16;100.00;100574.98;1633935;85;21053;-80
2022/02/08 20:29:38;;;;;;;15.98;10.45;;;;;;;-0.18;100.00;100570.36;1634698;86;21143;-80
2022/02/08 20:32:06;;;;;;;17.17;10.95;;;;;;;-0.20;100.00;100568.30;1637617;85;21133;-79
2022/02/08 20:34:35;;;;;;;18.90;11.10;;;;;;;-0.22;100.00;100570.06;1634073;86;21128;-80
2022/02/08 20:37:03;;;;;;;18.17;11.22;;;;;;;-0.23;100.00;100570.95;1634379;86;21103;-80
2022/02/08 20:39:30;;;;;;;18.05;12.23;;;;;;;-0.25;100.00;100574.84;1634704;86;21100;-79
2022/02/08 20:42:02;;;;;;;18.15;11.55;;;;;;;-0.26;100.00;100577.43;1634197;86;21140;-80
2022/02/08 20:44:29;;;;;;;15.35;11.68;;;;;;;-0.28;100.00;100580.50;1628389;85;21153;-80
2022/02/08 20:47:05;;;;;;;19.52;12.90;;;;;;;-0.28;100.00;100577.94;1627165;86;21125;-80
2022/02/08 20:49:28;;;;;;;16.05;12.00;;;;;;;-0.30;100.00;100580.98;1622543;87;21106;-80
2022/02/08 20:51:55;;;;;;;18.60;13.50;;;;;;;-0.34;100.00;100581.06;1622146;86;21705;-80
2022/02/08 20:54:26;;;;;;;18.02;12.43;;;;;;;-0.35;100.00;100577.28;1621642;86;21121;-80
2022/02/08 20:57:02;;;;;;;18.70;13.38;;;;;;;-0.38;100.00;100579.92;1625710;86;21162;-80
2022/02/08 20:59:30;;;;;;;20.00;12.28;;;;;;;-0.41;100.00;100584.70;1607536;86;21049;-80
2022/02/08 21:01:58;;;;;;;19.32;13.58;;;;;;;-0.43;100.00;100578.78;1625950;86;21602;-80
2022/02/08 21:04:28;;;;;;;19.60;12.75;;;;;;;-0.44;100.00;100578.83;1625044;86;21089;-79